createdAt,value
2018-02-16T00:01:05.570Z,21.73
2018-02-16T00:03:33.205Z,20.53
2018-02-16T00:06:01.012Z,20.73
2018-02-16T00:08:29.203Z,21.77
2018-02-16T00:10:56.989Z,20.40
2018-02-16T00:13:24.948Z,20.07
2018-02-16T00:15:52.637Z,18.87
2018-02-16T00:20:59.524Z,28.52
2018-02-16T00:23:27.293Z,22.17
2018-02-16T00:25:58.362Z,19.53
2018-02-16T00:28:26.109Z,19.50
2018-02-16T00:30:53.749Z,17.80
2018-02-16T00:33:21.433Z,19.50
2018-02-16T00:38:22.373Z,18.70
2018-02-16T00:40:50.194Z,19.63
2018-02-16T00:48:22.186Z,21.87
2018-02-16T00:50:51.186Z,22.63
2018-02-16T00:53:18.871Z,21.50
2018-02-16T00:55:46.584Z,22.43
2018-02-16T00:58:14.848Z,25.83
2018-02-16T01:03:14.468Z,18.40
2018-02-16T01:05:42.249Z,18.93
2018-02-16T01:08:10.077Z,19.20
2018-02-16T01:10:37.790Z,20.83
2018-02-16T01:13:05.654Z,19.63
2018-02-16T01:15:33.298Z,19.87
2018-02-16T01:18:01.410Z,18.97
2018-02-16T01:20:29.246Z,19.13
2018-02-16T01:22:57.407Z,19.83
2018-02-16T01:25:25.666Z,20.07
2018-02-16T01:27:53.380Z,22.87
2018-02-16T01:30:21.687Z,24.40
2018-02-16T01:32:50.291Z,23.00
2018-02-16T01:35:17.890Z,18.23
2018-02-16T01:37:45.591Z,19.03
2018-02-16T01:47:56.953Z,22.27
2018-02-16T01:50:24.791Z,22.13
2018-02-16T01:52:53.021Z,23.60
2018-02-16T01:55:20.743Z,24.60
2018-02-16T01:57:48.452Z,22.80
2018-02-16T02:00:16.221Z,21.63
2018-02-16T02:02:44.633Z,20.40
2018-02-16T02:05:12.249Z,20.83
2018-02-16T02:10:11.839Z,21.60
2018-02-16T02:12:40.725Z,24.03
2018-02-16T02:15:08.399Z,26.17
2018-02-16T02:17:37.384Z,25.93
2018-02-16T02:20:05.051Z,22.53
2018-02-16T02:22:35.127Z,21.30
2018-02-16T02:25:02.868Z,20.90
2018-02-16T02:27:30.960Z,22.80
2018-02-16T02:29:58.655Z,22.70
2018-02-16T02:32:26.675Z,21.07
2018-02-16T02:34:55.667Z,22.47
2018-02-16T02:37:23.878Z,22.17
2018-02-16T02:39:51.586Z,21.33
2018-02-16T02:42:19.920Z,27.07
2018-02-16T02:44:49.528Z,24.13
2018-02-16T02:47:17.245Z,21.83
2018-02-16T02:49:44.943Z,23.17
2018-02-16T02:54:41.803Z,23.30
2018-02-16T02:57:09.579Z,24.57
2018-02-16T02:59:37.652Z,22.93
2018-02-16T03:04:38.419Z,23.57
2018-02-16T03:07:06.191Z,25.87
2018-02-16T03:12:13.101Z,30.92
2018-02-16T03:14:43.637Z,24.73
2018-02-16T03:17:11.320Z,20.57
2018-02-16T03:19:39.079Z,21.00
2018-02-16T03:22:07.603Z,23.53
2018-02-16T03:24:36.001Z,23.83
2018-02-16T03:27:03.631Z,24.47
2018-02-16T03:29:31.379Z,25.20
2018-02-16T03:31:59.068Z,24.47
2018-02-16T03:34:26.793Z,25.93
2018-02-16T03:36:54.445Z,25.33
2018-02-16T03:39:23.309Z,25.00
2018-02-16T03:41:52.978Z,25.83
2018-02-16T03:44:23.789Z,26.83
2018-02-16T03:46:51.572Z,28.43
2018-02-16T03:49:19.324Z,32.10
2018-02-16T03:51:47.011Z,30.80
2018-02-16T03:59:30.645Z,41.20
2018-02-16T04:07:03.169Z,29.83
2018-02-16T04:12:02.832Z,27.00
2018-02-16T04:14:31.019Z,25.33
2018-02-16T04:16:58.765Z,24.60
2018-02-16T04:19:26.577Z,25.83
2018-02-16T04:21:54.989Z,29.80
2018-02-16T04:24:22.618Z,26.93
2018-02-16T04:26:50.322Z,25.33
2018-02-16T04:29:18.034Z,24.73
2018-02-16T04:31:45.745Z,26.30
2018-02-16T04:36:45.353Z,25.87
2018-02-16T04:39:13.052Z,24.73
2018-02-16T04:41:44.287Z,24.03
2018-02-16T04:44:12.014Z,24.87
2018-02-16T04:46:39.708Z,25.83
2018-02-16T04:49:07.398Z,27.20
2018-02-16T04:51:35.153Z,28.70
2018-02-16T04:54:02.799Z,29.43
2018-02-16T04:56:30.491Z,31.80
2018-02-16T04:58:58.370Z,32.40
2018-02-16T05:01:26.092Z,32.07
2018-02-16T05:03:53.760Z,32.13
2018-02-16T05:06:21.504Z,31.67
2018-02-16T05:08:49.209Z,33.23
2018-02-16T05:11:16.949Z,32.70
2018-02-16T05:13:45.108Z,29.87
2018-02-16T05:18:52.607Z,39.45
2018-02-16T05:21:21.011Z,28.53
2018-02-16T05:23:49.119Z,28.17
2018-02-16T05:26:17.178Z,26.40
2018-02-16T05:28:45.388Z,26.63
2018-02-16T05:31:13.012Z,28.20
2018-02-16T05:33:41.434Z,28.57
2018-02-16T05:36:09.077Z,30.33
2018-02-16T05:38:36.745Z,29.77
2018-02-16T05:41:05.226Z,31.57
2018-02-16T05:43:33.428Z,30.43
2018-02-16T05:46:02.924Z,31.20
2018-02-16T05:48:30.749Z,33.87
2018-02-16T05:50:58.377Z,34.23
2018-02-16T05:53:26.060Z,28.33
2018-02-16T05:58:26.976Z,31.23
2018-02-16T06:00:55.971Z,30.87
2018-02-16T06:03:23.594Z,29.53
2018-02-16T06:05:51.265Z,29.83
2018-02-16T06:08:18.988Z,30.63
2018-02-16T06:10:47.141Z,30.73
2018-02-16T06:13:14.868Z,28.27
2018-02-16T06:15:42.620Z,30.00
2018-02-16T06:18:11.032Z,28.13
2018-02-16T06:20:38.610Z,29.40
2018-02-16T06:23:06.867Z,28.60
2018-02-16T06:25:34.478Z,28.63
2018-02-16T06:28:02.157Z,27.57
2018-02-16T06:30:29.872Z,28.87
2018-02-16T06:38:19.615Z,44.60
2018-02-16T06:40:47.353Z,32.93
2018-02-16T06:43:15.135Z,32.10
2018-02-16T06:45:42.759Z,31.67
2018-02-16T06:48:10.502Z,34.93
2018-02-16T06:50:38.180Z,34.63
2018-02-16T06:53:05.894Z,35.87
2018-02-16T06:55:33.667Z,36.10
2018-02-16T06:58:01.335Z,37.27
2018-02-16T07:00:29.159Z,42.13
2018-02-16T07:02:56.878Z,45.73
2018-02-16T07:05:25.205Z,42.27
2018-02-16T07:07:52.853Z,44.07
2018-02-16T07:10:20.617Z,43.40
2018-02-16T07:12:48.279Z,40.67
2018-02-16T07:15:16.189Z,41.93
2018-02-16T07:17:46.438Z,42.80
2018-02-16T07:20:14.672Z,42.27
2018-02-16T07:22:42.866Z,38.77
2018-02-16T07:25:10.930Z,41.93
2018-02-16T07:27:40.278Z,40.60
2018-02-16T07:30:07.890Z,40.50
2018-02-16T07:32:35.585Z,40.27
2018-02-16T07:35:03.295Z,38.83
2018-02-16T07:37:31.474Z,37.83
2018-02-16T07:39:59.225Z,37.47
2018-02-16T07:42:27.216Z,41.70
2018-02-16T07:44:54.900Z,36.57
2018-02-16T07:47:23.616Z,35.57
2018-02-16T07:49:51.232Z,35.77
2018-02-16T07:52:18.912Z,37.40
2018-02-16T07:54:46.830Z,37.87
2018-02-16T07:57:14.505Z,36.20
2018-02-16T08:02:18.443Z,47.17
2018-02-16T08:04:46.789Z,37.57
2018-02-16T08:07:15.438Z,33.73
2018-02-16T08:09:43.558Z,33.00
2018-02-16T08:12:11.287Z,31.97
2018-02-16T08:14:39.310Z,30.80
2018-02-16T08:17:07.876Z,34.27
2018-02-16T08:19:38.895Z,33.07
2018-02-16T08:24:39.581Z,32.03
2018-02-16T08:27:08.879Z,30.30
2018-02-16T08:29:37.130Z,31.13
2018-02-16T08:34:36.954Z,31.60
2018-02-16T08:37:08.254Z,29.47
2018-02-16T08:42:10.457Z,30.10
2018-02-16T08:44:38.696Z,30.90
2018-02-16T08:47:06.513Z,30.13
2018-02-16T08:49:34.235Z,38.47
2018-02-16T08:54:42.580Z,40.00
2018-02-16T08:57:11.481Z,31.80
2018-02-16T08:59:39.076Z,30.03
2018-02-16T09:02:06.773Z,27.83
2018-02-16T09:04:34.454Z,27.83
2018-02-16T09:07:02.850Z,27.40
2018-02-16T09:09:30.937Z,27.47
2018-02-16T09:11:58.661Z,27.53
2018-02-16T09:14:27.951Z,27.53
2018-02-16T09:16:56.071Z,28.43
2018-02-16T09:19:24.809Z,27.20
2018-02-16T09:21:52.439Z,27.67
2018-02-16T09:24:20.222Z,27.77
2018-02-16T09:26:48.496Z,28.00
2018-02-16T09:29:16.135Z,29.37
2018-02-16T09:31:43.879Z,28.97
2018-02-16T09:34:11.573Z,27.03
2018-02-16T09:36:39.435Z,23.93
2018-02-16T09:39:07.993Z,21.60
2018-02-16T09:41:35.641Z,23.13
2018-02-16T09:44:03.324Z,25.37
2018-02-16T09:46:31.055Z,24.87
2018-02-16T09:48:59.152Z,22.97
2018-02-16T09:51:29.951Z,23.13
2018-02-16T09:53:57.651Z,24.73
2018-02-16T09:56:25.311Z,23.90
2018-02-16T09:58:52.980Z,21.43
2018-02-16T10:01:20.756Z,22.77
2018-02-16T10:03:48.424Z,21.83
2018-02-16T10:06:16.097Z,21.00
2018-02-16T10:08:43.859Z,18.40
2018-02-16T10:11:11.475Z,16.07
2018-02-16T10:16:18.477Z,18.25
2018-02-16T10:18:46.158Z,16.27
2018-02-16T10:21:14.567Z,16.07
2018-02-16T10:23:42.289Z,15.50
2018-02-16T10:26:10.425Z,16.47
2018-02-16T10:28:40.113Z,16.60
2018-02-16T10:31:07.823Z,16.30
2018-02-16T10:33:36.271Z,15.63
2018-02-16T10:36:04.439Z,16.97
2018-02-16T10:38:32.556Z,17.40
2018-02-16T10:41:00.244Z,16.07
2018-02-16T10:43:29.131Z,16.50
2018-02-16T10:45:56.902Z,15.87
2018-02-16T10:48:24.639Z,14.93
2018-02-16T10:50:52.299Z,15.93
2018-02-16T10:53:21.302Z,17.13
2018-02-16T10:55:49.431Z,18.13
2018-02-16T10:58:18.400Z,18.53
2018-02-16T11:00:51.625Z,18.50
2018-02-16T11:03:24.892Z,18.63
2018-02-16T11:11:02.943Z,22.03
2018-02-16T11:13:30.982Z,19.60
2018-02-16T11:15:58.664Z,19.90
2018-02-16T11:18:26.363Z,20.47
2018-02-16T11:20:54.030Z,20.53
2018-02-16T11:23:21.681Z,20.77
2018-02-16T11:28:24.222Z,19.17
2018-02-16T11:33:23.908Z,20.10
2018-02-16T11:35:51.646Z,20.50
2018-02-16T11:40:58.525Z,22.85
2018-02-16T11:43:26.194Z,20.17
2018-02-16T11:45:53.852Z,19.27
2018-02-16T11:48:21.581Z,18.53
2018-02-16T11:50:49.291Z,16.50
2018-02-16T11:53:16.983Z,15.53
2018-02-16T11:55:44.722Z,17.33
2018-02-16T11:58:12.924Z,17.20
2018-02-16T12:00:40.511Z,16.50
2018-02-16T12:03:08.461Z,17.67
2018-02-16T12:05:37.333Z,18.20
2018-02-16T12:08:04.984Z,19.03
2018-02-16T12:10:32.728Z,19.67
2018-02-16T12:13:00.396Z,22.07
2018-02-16T12:15:28.066Z,20.30
2018-02-16T12:17:55.787Z,18.60
2018-02-16T12:20:23.468Z,17.53
2018-02-16T12:22:51.137Z,18.27
2018-02-16T12:27:54.234Z,18.23
2018-02-16T12:32:54.784Z,18.23
2018-02-16T12:35:23.015Z,16.80
2018-02-16T12:37:51.018Z,17.47
2018-02-16T12:40:18.710Z,17.00
2018-02-16T12:42:46.433Z,14.30
2018-02-16T12:45:14.130Z,15.70
2018-02-16T12:47:41.799Z,15.03
2018-02-16T12:50:09.533Z,15.67
2018-02-16T12:55:23.802Z,17.37
2018-02-16T12:57:51.497Z,15.17
2018-02-16T13:00:19.220Z,14.53
2018-02-16T13:02:46.958Z,12.77
2018-02-16T13:05:15.008Z,12.33
2018-02-16T13:07:43.167Z,12.77
2018-02-16T13:10:10.947Z,12.97
2018-02-16T13:15:11.953Z,13.23
2018-02-16T13:17:40.154Z,13.43
2018-02-16T13:20:07.736Z,13.43
2018-02-16T13:22:36.236Z,13.47
2018-02-16T13:25:03.940Z,14.20
2018-02-16T13:27:31.595Z,14.43
2018-02-16T13:29:59.300Z,13.80
2018-02-16T13:32:26.961Z,12.50
2018-02-16T13:34:54.648Z,13.43
2018-02-16T13:37:22.494Z,13.17
2018-02-16T13:39:50.603Z,13.40
2018-02-16T13:42:18.352Z,12.73
2018-02-16T13:44:46.022Z,12.33
2018-02-16T13:49:45.710Z,12.77
2018-02-16T13:52:13.373Z,11.80
2018-02-16T13:54:41.492Z,10.50
2018-02-16T13:57:09.221Z,10.87
2018-02-16T13:59:36.917Z,8.83
2018-02-16T14:02:05.458Z,9.63
2018-02-16T14:04:33.235Z,10.30
2018-02-16T14:09:41.826Z,21.05
2018-02-16T14:19:46.894Z,15.23
2018-02-16T14:22:15.068Z,14.83
2018-02-16T14:24:43.164Z,14.43
2018-02-16T14:27:11.405Z,13.43
2018-02-16T14:29:39.089Z,12.43
2018-02-16T14:32:06.766Z,12.17
2018-02-16T14:34:35.410Z,12.27
2018-02-16T14:37:03.605Z,12.03
2018-02-16T14:39:31.903Z,10.80
2018-02-16T14:42:02.301Z,9.73
2018-02-16T14:44:29.874Z,11.20
2018-02-16T14:46:57.562Z,10.33
2018-02-16T14:49:25.278Z,9.57
2018-02-16T14:51:52.938Z,10.67
2018-02-16T14:54:21.177Z,10.17
2018-02-16T14:56:48.932Z,10.10
2018-02-16T14:59:18.217Z,11.13
2018-02-16T15:01:47.989Z,10.90
2018-02-16T15:04:16.713Z,11.07
2018-02-16T15:06:43.537Z,11.20
2018-02-16T15:09:13.006Z,11.30
2018-02-16T15:11:41.479Z,12.30
2018-02-16T15:14:13.753Z,12.63
2018-02-16T15:21:55.639Z,17.03
2018-02-16T15:27:09.313Z,17.92
2018-02-16T15:29:37.019Z,13.23
2018-02-16T15:32:04.755Z,13.33
2018-02-16T15:34:32.622Z,12.47
2018-02-16T15:37:00.265Z,12.30
2018-02-16T15:39:27.942Z,13.17
2018-02-16T15:41:57.309Z,12.67
2018-02-16T15:44:24.980Z,14.10
2018-02-16T15:46:52.699Z,14.20
2018-02-16T15:49:20.353Z,14.10
2018-02-16T15:51:48.600Z,12.10
2018-02-16T15:54:16.247Z,11.60
2018-02-16T15:56:44.589Z,11.90
2018-02-16T15:59:12.230Z,12.67
2018-02-16T16:01:39.881Z,12.40
2018-02-16T16:04:07.645Z,13.20
2018-02-16T16:06:35.310Z,13.43
2018-02-16T16:09:03.501Z,12.77
2018-02-16T16:11:31.531Z,13.83
2018-02-16T16:13:59.185Z,14.40
2018-02-16T16:19:07.830Z,17.62
2018-02-16T16:21:35.518Z,16.13
2018-02-16T16:24:03.181Z,14.63
2018-02-16T16:26:30.892Z,13.60
2018-02-16T16:28:59.335Z,12.33
2018-02-16T16:31:26.992Z,14.33
2018-02-16T16:33:55.106Z,13.57
2018-02-16T16:36:23.291Z,13.80
2018-02-16T16:38:50.927Z,14.10
2018-02-16T16:41:18.641Z,13.90
2018-02-16T16:43:46.314Z,15.00
2018-02-16T16:46:14.051Z,14.43
2018-02-16T16:48:41.798Z,14.77
2018-02-16T16:51:10.023Z,16.37
2018-02-16T16:53:37.734Z,14.90
2018-02-16T16:56:05.642Z,15.30
2018-02-16T16:58:33.294Z,15.80
2018-02-16T17:01:00.959Z,15.17
2018-02-16T17:06:00.386Z,15.77
2018-02-16T17:08:28.530Z,16.67
2018-02-16T17:10:56.112Z,17.03
2018-02-16T17:13:23.782Z,16.87
2018-02-16T17:15:51.537Z,18.03
2018-02-16T17:18:19.156Z,17.83
2018-02-16T17:20:47.301Z,17.40
2018-02-16T17:23:15.505Z,17.90
2018-02-16T17:25:43.153Z,17.50
2018-02-16T17:28:10.821Z,17.20
2018-02-16T17:30:39.367Z,15.80
2018-02-16T17:33:06.993Z,15.43
2018-02-16T17:35:34.941Z,15.40
2018-02-16T17:38:02.867Z,16.30
2018-02-16T17:40:30.578Z,16.90
2018-02-16T17:45:37.788Z,26.00
2018-02-16T17:48:05.434Z,21.20
2018-02-16T17:50:33.077Z,20.23
2018-02-16T17:53:00.777Z,20.33
2018-02-16T17:55:28.452Z,20.27
2018-02-16T17:57:56.124Z,20.63
2018-02-16T18:00:25.111Z,20.20
2018-02-16T18:02:52.759Z,26.30
2018-02-16T18:05:20.890Z,30.63
2018-02-16T18:07:48.654Z,28.40
2018-02-16T18:10:16.298Z,26.33
2018-02-16T18:12:45.955Z,24.73
2018-02-16T18:15:11.670Z,25.53
2018-02-16T18:17:41.286Z,24.60
2018-02-16T18:20:08.568Z,23.53
2018-02-16T18:22:36.343Z,25.20
2018-02-16T18:25:03.982Z,22.07
2018-02-16T18:27:31.681Z,24.20
2018-02-16T18:29:59.423Z,21.93
2018-02-16T18:32:27.987Z,22.10
2018-02-16T18:34:55.718Z,22.20
2018-02-16T18:37:24.315Z,21.03
2018-02-16T18:39:51.974Z,22.83
2018-02-16T18:42:19.625Z,21.37
2018-02-16T18:44:47.322Z,20.23
2018-02-16T18:47:17.646Z,20.50
2018-02-16T18:49:45.703Z,20.77
2018-02-16T18:52:13.412Z,21.27
2018-02-16T18:54:41.074Z,20.37
2018-02-16T18:59:47.939Z,28.62
2018-02-16T19:04:55.857Z,24.12
2018-02-16T19:07:23.486Z,19.03
2018-02-16T19:09:51.672Z,17.67
2018-02-16T19:12:19.352Z,18.30
2018-02-16T19:14:47.020Z,16.53
2018-02-16T19:17:14.669Z,17.77
2018-02-16T19:19:42.389Z,17.63
2018-02-16T19:22:10.063Z,18.40
2018-02-16T19:24:39.605Z,17.73
2018-02-16T19:27:07.297Z,17.77
2018-02-16T19:29:34.979Z,18.07
2018-02-16T19:32:02.664Z,18.10
2018-02-16T19:34:30.378Z,19.20
2018-02-16T19:36:58.011Z,18.57
2018-02-16T19:39:25.670Z,19.77
2018-02-16T19:41:53.717Z,28.03
2018-02-16T19:44:21.352Z,19.33
2018-02-16T19:46:49.020Z,19.23
2018-02-16T19:49:16.766Z,19.43
2018-02-16T19:51:44.364Z,20.63
2018-02-16T19:54:12.028Z,19.23
2018-02-16T19:56:40.273Z,22.53
2018-02-16T19:59:08.797Z,24.10
2018-02-16T20:01:36.432Z,23.20
2018-02-16T20:04:04.144Z,22.83
2018-02-16T20:06:31.754Z,23.90
2018-02-16T20:08:59.377Z,21.23
2018-02-16T20:11:27.085Z,22.47
2018-02-16T20:13:54.743Z,21.33
2018-02-16T20:16:22.406Z,21.20
2018-02-16T20:18:50.117Z,23.07
2018-02-16T20:21:17.772Z,22.27
2018-02-16T20:23:45.442Z,21.27
2018-02-16T20:26:13.114Z,22.33
2018-02-16T20:28:40.746Z,24.10
2018-02-16T20:33:49.590Z,33.38
2018-02-16T20:36:17.227Z,28.40
2018-02-16T20:38:44.883Z,23.23
2018-02-16T20:41:12.606Z,27.47
2018-02-16T20:43:40.240Z,23.53
2018-02-16T20:46:07.878Z,23.00
2018-02-16T20:48:35.582Z,23.97
2018-02-16T20:51:03.194Z,22.83
2018-02-16T20:56:11.608Z,32.47
2018-02-16T20:58:39.260Z,23.57
2018-02-16T21:01:06.891Z,22.63
2018-02-16T21:03:34.850Z,22.77
2018-02-16T21:06:03.107Z,20.67
2018-02-16T21:08:30.660Z,21.30
2018-02-16T21:10:58.348Z,21.20
2018-02-16T21:13:25.995Z,23.77
2018-02-16T21:15:53.998Z,23.40
2018-02-16T21:18:21.700Z,23.93
2018-02-16T21:20:49.335Z,23.07
2018-02-16T21:23:16.969Z,23.50
2018-02-16T21:25:44.663Z,23.57
2018-02-16T21:28:12.286Z,26.93
2018-02-16T21:30:39.920Z,24.87
2018-02-16T21:33:07.602Z,24.53
2018-02-16T21:35:35.239Z,23.07
2018-02-16T21:38:02.920Z,24.20
2018-02-16T21:40:30.794Z,24.60
2018-02-16T21:42:58.543Z,24.73
2018-02-16T21:45:26.246Z,28.90
2018-02-16T21:47:56.095Z,25.60
2018-02-16T21:50:22.103Z,25.53
2018-02-16T21:52:49.802Z,25.60
2018-02-16T21:55:17.552Z,24.57
2018-02-16T21:57:45.186Z,25.07
2018-02-16T22:00:12.810Z,24.57
2018-02-16T22:02:40.495Z,25.47
2018-02-16T22:05:08.117Z,24.63
2018-02-16T22:07:35.768Z,25.53
2018-02-16T22:10:04.232Z,24.77
2018-02-16T22:12:31.915Z,26.30
2018-02-16T22:17:38.107Z,33.33
2018-02-16T22:20:05.791Z,29.27
2018-02-16T22:22:33.442Z,28.10
2018-02-16T22:25:01.187Z,25.83
2018-02-16T22:27:28.893Z,28.60
2018-02-16T22:29:57.092Z,27.10
2018-02-16T22:32:24.787Z,41.93
2018-02-16T22:34:52.419Z,32.17
2018-02-16T22:37:20.050Z,30.80
2018-02-16T22:39:47.930Z,27.17
2018-02-16T22:42:15.522Z,29.67
2018-02-16T22:44:43.173Z,28.57
2018-02-16T22:47:11.319Z,27.97
2018-02-16T22:49:38.942Z,27.83
2018-02-16T22:52:06.588Z,29.30
2018-02-16T22:54:34.279Z,28.67
2018-02-16T22:57:01.926Z,30.50
2018-02-16T22:59:29.593Z,27.83
2018-02-16T23:01:59.522Z,29.90
2018-02-16T23:04:27.162Z,28.67
2018-02-16T23:06:54.779Z,29.97
2018-02-16T23:09:23.433Z,32.53
2018-02-16T23:11:51.064Z,30.80
2018-02-16T23:14:18.681Z,28.13
2018-02-16T23:16:46.826Z,29.03
2018-02-16T23:19:14.436Z,29.07
2018-02-16T23:21:42.074Z,28.43
2018-02-16T23:24:09.754Z,31.70
2018-02-16T23:26:43.526Z,30.40
2018-02-16T23:29:11.309Z,30.47
2018-02-16T23:34:22.374Z,41.45
2018-02-16T23:39:22.905Z,29.97
2018-02-16T23:41:52.029Z,28.67
2018-02-16T23:44:22.392Z,29.40
2018-02-16T23:46:50.120Z,29.27
2018-02-16T23:49:21.136Z,29.13
2018-02-16T23:51:48.833Z,27.37
2018-02-16T23:54:16.441Z,28.77
2018-02-16T23:56:44.068Z,29.17
2018-02-16T23:59:11.706Z,27.20
